Time;durP1;ratioP1;P1;durP2;ratioP2;P2;SDS_P1;SDS_P2;PMS_P1;PMS_P2;Temp;Humidity;BMP_temperature;BMP_pressure;BME280_temperature;BME280_humidity;BME280_pressure;Samples;Min_cycle;Max_cycle;Signal;HPM_P1;HPM_P2
2023/03/13 00:00:27;;;;;;;10.03;3.60;;;10.40;95.90;;;;;;5070987;28;20447;-76
2023/03/13 00:02:53;;;;;;;11.48;3.50;;;10.50;96.00;;;;;;5066062;28;20533;-75
2023/03/13 00:05:20;;;;;;;10.38;3.35;;;10.50;95.90;;;;;;5065658;28;20815;-75
2023/03/13 00:07:48;;;;;;;12.63;3.78;;;10.50;95.80;;;;;;5067306;28;20426;-75
2023/03/13 00:10:15;;;;;;;12.00;4.10;;;10.60;95.60;;;;;;5068900;28;20443;-75
2023/03/13 00:12:42;;;;;;;10.95;3.30;;;10.60;95.60;;;;;;5080870;28;20422;-75
2023/03/13 00:15:10;;;;;;;9.10;3.80;;;10.60;95.60;;;;;;5071962;28;20419;-76
2023/03/13 00:17:37;;;;;;;11.55;3.60;;;10.70;95.70;;;;;;5067416;28;20415;-75
2023/03/13 00:20:04;;;;;;;7.95;3.00;;;10.70;95.60;;;;;;5065930;28;20442;-75
2023/03/13 00:22:31;;;;;;;10.13;3.40;;;10.70;95.30;;;;;;5066275;28;20411;-76
2023/03/13 00:24:59;;;;;;;9.57;3.50;;;10.80;95.00;;;;;;5067800;28;20537;-75
2023/03/13 00:27:26;;;;;;;9.10;3.88;;;10.80;95.10;;;;;;5072503;28;20462;-75
2023/03/13 00:29:53;;;;;;;10.55;3.50;;;10.90;94.90;;;;;;5074218;28;20438;-76
2023/03/13 00:32:19;;;;;;;8.52;3.63;;;10.90;94.80;;;;;;5065864;28;20435;-75
2023/03/13 00:34:46;;;;;;;7.82;3.00;;;11.00;94.70;;;;;;5065436;28;20957;-76
2023/03/13 00:37:13;;;;;;;9.30;3.40;;;11.00;94.40;;;;;;5066028;28;20479;-76
2023/03/13 00:39:40;;;;;;;10.60;3.85;;;11.10;94.80;;;;;;5064454;28;20413;-76
2023/03/13 00:42:08;;;;;;;8.67;3.30;;;11.10;94.80;;;;;;5077546;28;20429;-76
2023/03/13 00:44:35;;;;;;;9.55;3.70;;;11.00;95.00;;;;;;5087021;22;20435;-69
2023/03/13 00:47:04;;;;;;;12.85;4.30;;;11.10;96.60;;;;;;5062701;28;20940;-68
2023/03/13 00:49:30;;;;;;;9.57;3.40;;;11.00;97.00;;;;;;5067412;28;20419;-70
2023/03/13 00:51:57;;;;;;;8.63;3.47;;;10.90;98.50;;;;;;5069752;28;20901;-70
2023/03/13 00:54:24;;;;;;;10.43;3.70;;;10.70;98.80;;;;;;5086938;28;20414;-68
2023/03/13 00:56:51;;;;;;;9.10;3.40;;;10.70;99.00;;;;;;5072076;28;20420;-70
2023/03/13 00:59:19;;;;;;;10.70;3.88;;;10.70;99.00;;;;;;5090854;28;20421;-68
2023/03/13 01:01:46;;;;;;;11.07;4.10;;;10.70;99.00;;;;;;5090814;28;20414;-69
2023/03/13 01:04:13;;;;;;;11.35;4.00;;;10.70;99.50;;;;;;5070735;28;20907;-69
2023/03/13 01:06:42;;;;;;;9.27;3.60;;;10.70;99.00;;;;;;5070579;28;20759;-70
2023/03/13 01:09:10;;;;;;;11.20;4.20;;;10.70;99.40;;;;;;5057326;28;20443;-69
2023/03/13 01:11:39;;;;;;;12.13;3.73;;;10.70;99.40;;;;;;5065688;28;20435;-69
2023/03/13 01:14:08;;;;;;;9.00;3.50;;;10.80;99.60;;;;;;5074988;28;20413;-69
2023/03/13 01:16:38;;;;;;;8.60;3.83;;;10.80;99.80;;;;;;5064493;28;20438;-70
2023/03/13 01:19:06;;;;;;;11.50;4.60;;;10.80;99.30;;;;;;5059730;28;20442;-69
2023/03/13 01:21:34;;;;;;;8.70;3.88;;;10.80;99.80;;;;;;5070907;28;20415;-69
2023/03/13 01:24:00;;;;;;;11.00;4.55;;;10.80;99.60;;;;;;5070117;28;20821;-69
2023/03/13 01:26:28;;;;;;;9.23;3.80;;;10.70;99.90;;;;;;5071421;28;20447;-69
2023/03/13 01:28:55;;;;;;;10.90;3.73;;;10.70;99.80;;;;;;5070099;28;20415;-69
2023/03/13 01:31:24;;;;;;;10.90;4.28;;;10.70;99.90;;;;;;5068697;28;20428;-70
2023/03/13 01:33:55;;;;;;;8.68;3.70;;;10.70;99.90;;;;;;5069141;28;20801;-70
2023/03/13 01:36:22;;;;;;;11.10;3.80;;;10.70;99.90;;;;;;5069469;28;20416;-69
2023/03/13 01:38:51;;;;;;;9.13;3.00;;;10.70;99.90;;;;;;5081621;28;20413;-69
2023/03/13 01:41:19;;;;;;;7.95;3.42;;;10.80;99.90;;;;;;5064756;28;20431;-69
2023/03/13 01:43:46;;;;;;;9.80;3.20;;;10.80;99.90;;;;;;5070520;28;20419;-69
2023/03/13 01:46:15;;;;;;;8.45;2.97;;;10.90;99.90;;;;;;5071276;28;20430;-69
2023/03/13 01:48:46;;;;;;;7.05;2.70;;;11.00;99.90;;;;;;5073104;28;20786;-69
2023/03/13 01:51:20;;;;;;;5.15;2.35;;;11.10;99.40;;;;;;5084806;28;20415;-69
2023/03/13 01:53:50;;;;;;;6.03;2.70;;;11.20;99.20;;;;;;5068691;28;20520;-70
2023/03/13 01:56:21;;;;;;;6.45;2.22;;;11.30;98.60;;;;;;5078487;28;20445;-68
2023/03/13 01:58:50;;;;;;;8.57;2.28;;;11.30;98.60;;;;;;5088511;28;20414;-69
2023/03/13 02:01:19;;;;;;;5.47;2.33;;;11.40;98.30;;;;;;5072771;28;20457;-68
2023/03/13 02:03:47;;;;;;;5.95;2.42;;;11.40;98.40;;;;;;5048104;28;20425;-68
2023/03/13 02:06:16;;;;;;;7.10;2.75;;;11.50;97.80;;;;;;5049529;28;20423;-68
2023/03/13 02:08:48;;;;;;;6.03;2.80;;;11.60;98.00;;;;;;5065331;28;20438;-70
2023/03/13 02:11:23;;;;;;;5.35;1.80;;;11.50;97.90;;;;;;5070237;28;20489;-68
2023/03/13 02:13:51;;;;;;;5.72;2.05;;;11.50;98.20;;;;;;5081976;28;20420;-69
2023/03/13 02:16:20;;;;;;;4.72;1.90;;;11.50;98.30;;;;;;5069091;28;20416;-68
2023/03/13 02:18:48;;;;;;;5.07;1.90;;;11.50;98.70;;;;;;5077194;28;20787;-69
2023/03/13 02:21:25;;;;;;;5.90;2.20;;;11.40;99.00;;;;;;5061864;28;20411;-69
2023/03/13 02:23:58;;;;;;;4.75;1.83;;;11.40;99.50;;;;;;5069831;28;20433;-70
2023/03/13 02:26:27;;;;;;;5.05;1.90;;;11.40;99.90;;;;;;5070160;28;20399;-70
2023/03/13 02:28:54;;;;;;;6.07;1.90;;;11.40;99.90;;;;;;5068071;28;20434;-69
2023/03/13 02:31:20;;;;;;;4.10;1.60;;;11.20;99.90;;;;;;5068783;28;20817;-68
2023/03/13 02:33:47;;;;;;;5.60;2.17;;;11.10;99.90;;;;;;5059512;28;20425;-70
2023/03/13 02:36:16;;;;;;;3.88;1.83;;;11.00;99.90;;;;;;5069453;28;20410;-69
2023/03/13 02:38:48;;;;;;;5.67;1.67;;;10.90;99.90;;;;;;5074416;28;20427;-69
2023/03/13 02:41:16;;;;;;;3.63;1.50;;;10.70;99.90;;;;;;5074017;28;20416;-69
2023/03/13 02:43:44;;;;;;;5.55;1.55;;;10.60;99.90;;;;;;5068511;28;20870;-71
2023/03/13 02:46:13;;;;;;;4.20;2.00;;;10.50;99.90;;;;;;5065820;28;20431;-70
2023/03/13 02:48:42;;;;;;;4.90;1.90;;;10.40;99.90;;;;;;5081566;28;20607;-70
2023/03/13 02:51:18;;;;;;;4.37;1.73;;;10.30;99.90;;;;;;5068337;28;20415;-71
2023/03/13 02:53:47;;;;;;;2.88;1.50;;;10.30;99.90;;;;;;5063920;28;20912;-70
2023/03/13 02:56:17;;;;;;;2.20;1.10;;;10.30;99.90;;;;;;5062041;28;20415;-69
2023/03/13 02:58:45;;;;;;;2.30;1.10;;;10.30;99.90;;;;;;5070363;28;20534;-68
2023/03/13 03:01:12;;;;;;;3.33;1.33;;;10.30;99.90;;;;;;5077706;28;20492;-69
2023/03/13 03:03:39;;;;;;;4.13;1.15;;;10.30;99.90;;;;;;5058684;28;20781;-71
2023/03/13 03:06:07;;;;;;;3.03;1.08;;;10.30;99.90;;;;;;5066485;28;20431;-70
2023/03/13 03:08:34;;;;;;;4.10;1.50;;;10.30;99.90;;;;;;5065563;28;20909;-69
2023/03/13 03:11:02;;;;;;;3.63;1.55;;;10.30;99.90;;;;;;5079506;28;20429;-68
2023/03/13 03:13:28;;;;;;;2.53;0.90;;;10.40;99.90;;;;;;5074934;28;20428;-70
2023/03/13 03:15:57;;;;;;;2.73;1.07;;;10.30;99.90;;;;;;5078440;28;20411;-69
2023/03/13 03:18:23;;;;;;;3.00;1.23;;;10.40;99.90;;;;;;5068326;28;20505;-68
2023/03/13 03:20:50;;;;;;;2.05;1.00;;;10.30;99.90;;;;;;5065724;28;20470;-69
2023/03/13 03:23:17;;;;;;;1.83;0.90;;;10.40;99.90;;;;;;5062472;28;20426;-69
2023/03/13 03:25:44;;;;;;;2.35;1.00;;;10.40;99.90;;;;;;5068786;28;20905;-70
2023/03/13 03:28:10;;;;;;;2.90;1.03;;;10.40;99.90;;;;;;5082487;28;20499;-69
2023/03/13 03:30:37;;;;;;;2.10;0.90;;;10.40;99.90;;;;;;5068892;28;20419;-71
2023/03/13 03:33:05;;;;;;;1.00;0.70;;;10.40;99.90;;;;;;5065618;28;20433;-68
2023/03/13 03:35:32;;;;;;;1.92;0.70;;;10.50;99.90;;;;;;5068003;28;20446;-70
2023/03/13 03:37:59;;;;;;;2.47;0.88;;;10.50;99.90;;;;;;5063420;28;20444;-71
2023/03/13 03:40:26;;;;;;;0.90;0.70;;;10.60;99.90;;;;;;5069164;28;20412;-69
2023/03/13 03:42:54;;;;;;;1.15;0.60;;;10.70;99.90;;;;;;5071662;28;20410;-69
2023/03/13 03:45:20;;;;;;;1.80;0.60;;;10.70;99.90;;;;;;5074703;28;20486;-69
2023/03/13 03:47:47;;;;;;;2.30;0.90;;;10.80;99.90;;;;;;5080764;28;20413;-69
2023/03/13 03:50:15;;;;;;;1.10;0.50;;;10.80;99.90;;;;;;5068337;28;20927;-71
2023/03/13 03:52:42;;;;;;;0.80;0.52;;;10.80;99.90;;;;;;5065787;28;20913;-69
2023/03/13 03:55:09;;;;;;;1.50;0.60;;;10.90;99.90;;;;;;5074252;28;20915;-69
2023/03/13 03:57:36;;;;;;;1.23;0.60;;;10.90;99.90;;;;;;5088366;28;20421;-71
2023/03/13 04:00:06;;;;;;;1.30;0.77;;;10.90;99.90;;;;;;5081477;28;20421;-69
2023/03/13 04:02:33;;;;;;;0.90;0.60;;;10.90;99.90;;;;;;5066598;28;20434;-69
2023/03/13 04:05:00;;;;;;;1.88;0.60;;;11.00;99.90;;;;;;5071857;28;20430;-68
2023/03/13 04:07:28;;;;;;;0.75;0.50;;;11.10;99.90;;;;;;5064637;28;20434;-68
2023/03/13 04:09:54;;;;;;;0.80;0.50;;;11.20;99.90;;;;;;5076499;28;20860;-69
2023/03/13 04:12:21;;;;;;;0.70;0.43;;;11.20;99.90;;;;;;5084507;28;20416;-69
2023/03/13 04:14:48;;;;;;;0.90;0.50;;;11.30;99.90;;;;;;5079260;28;20436;-70
2023/03/13 04:17:15;;;;;;;1.30;0.60;;;11.30;99.90;;;;;;5067573;28;20494;-69
2023/03/13 04:19:42;;;;;;;0.80;0.50;;;11.30;99.90;;;;;;5063617;28;20506;-69
2023/03/13 04:22:08;;;;;;;1.13;0.65;;;11.30;99.90;;;;;;5067744;28;20419;-68
2023/03/13 04:24:37;;;;;;;0.77;0.50;;;11.40;99.90;;;;;;5053395;28;20413;-68
2023/03/13 04:27:05;;;;;;;1.23;0.70;;;11.50;99.90;;;;;;5080180;28;20422;-69
2023/03/13 04:29:32;;;;;;;1.20;0.70;;;11.50;99.90;;;;;;5067752;28;20511;-69
2023/03/13 04:31:59;;;;;;;1.95;0.88;;;11.50;99.90;;;;;;5067690;28;20498;-69
2023/03/13 04:34:26;;;;;;;1.00;0.70;;;11.40;99.90;;;;;;5064981;28;20432;-69
2023/03/13 04:36:53;;;;;;;0.90;0.70;;;11.40;99.90;;;;;;5071544;28;20427;-69
2023/03/13 04:39:23;;;;;;;0.80;0.80;;;11.40;99.90;;;;;;5065133;28;20442;-71
2023/03/13 04:41:52;;;;;;;1.85;0.70;;;11.40;99.90;;;;;;5067777;28;20507;-70
2023/03/13 04:44:18;;;;;;;0.97;0.50;;;11.30;99.90;;;;;;5066953;28;20423;-68
2023/03/13 04:46:45;;;;;;;1.10;0.70;;;11.40;99.90;;;;;;5066964;28;20771;-69
2023/03/13 04:49:13;;;;;;;0.82;0.60;;;11.40;99.90;;;;;;5067118;28;20529;-70
2023/03/13 04:51:40;;;;;;;0.93;0.50;;;11.40;99.90;;;;;;5057673;28;20463;-69
2023/03/13 04:54:07;;;;;;;1.10;0.70;;;11.40;99.90;;;;;;5065925;28;20446;-69
2023/03/13 04:56:33;;;;;;;1.10;0.55;;;11.40;99.90;;;;;;5073215;28;20407;-69
2023/03/13 04:59:02;;;;;;;0.80;0.52;;;11.40;99.90;;;;;;5067625;28;20426;-69
2023/03/13 05:01:28;;;;;;;0.90;0.40;;;11.40;99.90;;;;;;5067187;28;20415;-69
2023/03/13 05:03:55;;;;;;;1.17;0.60;;;11.50;99.90;;;;;;5078975;28;20859;-70
2023/03/13 05:06:22;;;;;;;1.60;0.50;;;11.50;99.90;;;;;;5056903;28;20431;-70
2023/03/13 05:08:49;;;;;;;0.82;0.40;;;11.50;99.90;;;;;;5065845;28;20444;-70
2023/03/13 05:11:16;;;;;;;1.08;0.63;;;11.50;99.90;;;;;;5067941;28;20431;-70
2023/03/13 05:13:42;;;;;;;1.10;0.40;;;11.60;99.90;;;;;;5059054;28;20423;-69
2023/03/13 05:16:10;;;;;;;0.80;0.50;;;11.60;99.90;;;;;;5067772;28;20419;-69
2023/03/13 05:18:38;;;;;;;1.50;0.40;;;11.60;99.90;;;;;;5066694;28;20418;-69
2023/03/13 05:21:05;;;;;;;1.05;0.50;;;11.70;99.90;;;;;;5066101;28;20848;-70
2023/03/13 05:23:32;;;;;;;0.90;0.50;;;11.70;99.90;;;;;;5061441;28;20509;-70
2023/03/13 05:25:59;;;;;;;1.10;0.70;;;11.70;99.90;;;;;;5047377;28;20893;-71
2023/03/13 05:28:26;;;;;;;0.80;0.50;;;11.70;99.90;;;;;;5068028;28;20423;-68
2023/03/13 05:30:53;;;;;;;0.70;0.50;;;11.70;99.90;;;;;;5066244;28;20482;-70
2023/03/13 05:33:21;;;;;;;0.80;0.57;;;11.70;99.90;;;;;;5049130;28;20425;-70
2023/03/13 05:35:48;;;;;;;1.10;0.85;;;11.70;99.90;;;;;;5056941;28;20450;-71
2023/03/13 05:38:15;;;;;;;0.80;0.50;;;11.80;99.90;;;;;;5067111;28;20411;-69
2023/03/13 05:40:42;;;;;;;1.30;0.60;;;11.80;99.90;;;;;;5071507;28;20419;-70
2023/03/13 05:43:09;;;;;;;1.00;0.70;;;11.80;99.90;;;;;;5089039;28;20410;-70
2023/03/13 05:45:36;;;;;;;0.70;0.50;;;11.90;99.90;;;;;;5076863;28;20439;-70
2023/03/13 05:48:03;;;;;;;1.00;0.60;;;11.90;99.90;;;;;;5067868;28;20434;-71
2023/03/13 05:50:31;;;;;;;0.90;0.60;;;11.90;99.90;;;;;;5069520;28;20416;-70
2023/03/13 05:52:57;;;;;;;2.17;0.82;;;11.90;99.90;;;;;;5068210;28;20466;-71
2023/03/13 05:55:24;;;;;;;1.00;0.68;;;11.90;99.90;;;;;;5073628;28;20442;-70
2023/03/13 05:57:51;;;;;;;0.95;0.60;;;11.80;99.90;;;;;;5064912;28;20442;-72
2023/03/13 06:00:19;;;;;;;2.10;0.70;;;11.80;99.90;;;;;;5063651;28;20980;-71
2023/03/13 06:02:45;;;;;;;1.40;0.75;;;11.80;99.90;;;;;;5068320;28;20426;-69
2023/03/13 06:05:12;;;;;;;0.98;0.70;;;11.70;99.90;;;;;;5061359;28;20423;-69
2023/03/13 06:07:40;;;;;;;0.90;0.70;;;11.80;99.90;;;;;;5063056;28;20442;-71
2023/03/13 06:10:08;;;;;;;1.40;0.80;;;11.80;99.90;;;;;;5070068;28;20435;-71
2023/03/13 06:12:34;;;;;;;1.90;0.90;;;11.90;99.90;;;;;;5057878;28;20434;-70
2023/03/13 06:15:01;;;;;;;1.00;0.70;;;11.90;99.90;;;;;;5065294;28;20441;-70
2023/03/13 06:17:28;;;;;;;1.00;0.80;;;12.00;99.90;;;;;;5063777;28;20427;-69
2023/03/13 06:19:55;;;;;;;1.20;0.60;;;12.10;99.90;;;;;;5058170;28;20433;-69
2023/03/13 06:22:21;;;;;;;0.90;0.70;;;12.10;99.90;;;;;;5064188;28;20534;-69
2023/03/13 06:24:49;;;;;;;1.50;0.80;;;12.20;99.90;;;;;;5069539;28;20419;-69
2023/03/13 06:27:17;;;;;;;4.15;0.90;;;12.20;99.90;;;;;;5071667;28;20428;-70
2023/03/13 06:29:44;;;;;;;1.10;0.77;;;12.20;99.90;;;;;;5071570;28;20432;-70
2023/03/13 06:32:10;;;;;;;1.20;0.80;;;12.20;99.90;;;;;;5070323;28;20965;-71
2023/03/13 06:34:37;;;;;;;1.08;0.70;;;12.30;99.90;;;;;;5066604;28;20428;-70
2023/03/13 06:37:04;;;;;;;1.00;0.80;;;12.30;99.90;;;;;;5064996;28;20431;-69
2023/03/13 06:39:31;;;;;;;0.98;0.85;;;12.30;99.90;;;;;;5068804;28;20437;-69
2023/03/13 06:41:59;;;;;;;0.90;0.80;;;12.40;99.90;;;;;;5067843;28;20423;-70
2023/03/13 06:44:26;;;;;;;0.90;0.60;;;12.40;99.90;;;;;;5062136;28;20435;-70
2023/03/13 06:46:52;;;;;;;1.40;0.83;;;12.50;99.90;;;;;;5083340;22;20956;-77
2023/03/13 06:49:19;;;;;;;1.70;1.00;;;12.50;99.90;;;;;;5061842;28;20966;-75
2023/03/13 06:51:46;;;;;;;1.03;0.93;;;12.60;99.90;;;;;;5056923;28;20423;-76
2023/03/13 06:54:13;;;;;;;1.77;0.80;;;12.60;99.90;;;;;;5059810;28;20886;-76
2023/03/13 06:56:39;;;;;;;0.82;0.75;;;12.70;99.90;;;;;;5060650;28;20914;-76
2023/03/13 06:59:07;;;;;;;2.50;0.90;;;12.80;99.90;;;;;;5037417;28;20443;-76
2023/03/13 07:01:34;;;;;;;1.20;1.10;;;12.90;99.90;;;;;;5052754;28;20474;-76
2023/03/13 07:04:01;;;;;;;2.15;1.20;;;13.00;99.90;;;;;;5037428;28;20716;-76
2023/03/13 07:06:28;;;;;;;2.13;1.23;;;13.00;99.90;;;;;;5038450;28;20418;-76
2023/03/13 07:08:54;;;;;;;2.22;1.20;;;13.10;99.90;;;;;;5041683;28;20503;-76
2023/03/13 07:11:21;;;;;;;1.65;1.30;;;13.20;99.90;;;;;;5036058;28;20867;-76
2023/03/13 07:13:48;;;;;;;1.60;1.50;;;13.20;99.90;;;;;;5037228;28;20433;-77
2023/03/13 07:16:16;;;;;;;2.58;1.55;;;13.20;99.90;;;;;;5042460;28;20453;-76
2023/03/13 07:18:44;;;;;;;2.13;1.30;;;13.30;99.90;;;;;;5044300;28;20434;-76
2023/03/13 07:21:11;;;;;;;1.92;1.50;;;13.30;99.90;;;;;;5036594;28;20975;-76
2023/03/13 07:23:39;;;;;;;2.72;1.70;;;13.40;99.90;;;;;;5038766;28;20700;-77
2023/03/13 07:26:07;;;;;;;2.70;1.70;;;13.50;99.90;;;;;;5045027;28;20424;-76
2023/03/13 07:28:34;;;;;;;2.67;1.65;;;13.50;99.90;;;;;;5035788;28;20440;-76
2023/03/13 07:31:05;;;;;;;2.72;1.58;;;13.50;99.90;;;;;;5040102;28;20429;-77
2023/03/13 07:33:34;;;;;;;1.93;1.40;;;13.60;99.90;;;;;;5038995;28;20442;-76
2023/03/13 07:36:01;;;;;;;2.80;1.48;;;13.70;98.60;;;;;;5042330;28;20895;-76
2023/03/13 07:38:27;;;;;;;2.65;1.90;;;13.80;98.40;;;;;;5043806;28;21876;-77
2023/03/13 07:40:56;;;;;;;2.40;2.00;;;13.80;97.70;;;;;;5039730;28;20448;-76
2023/03/13 07:43:24;;;;;;;2.40;1.90;;;13.80;97.80;;;;;;5045136;28;20860;-75
2023/03/13 07:45:52;;;;;;;2.88;1.90;;;13.90;97.10;;;;;;5036648;28;20421;-73
2023/03/13 07:48:19;;;;;;;3.35;1.83;;;14.00;96.70;;;;;;5040448;28;20690;-75
2023/03/13 07:50:48;;;;;;;2.90;1.90;;;14.10;96.70;;;;;;5035386;28;20481;-75
2023/03/13 07:53:19;;;;;;;4.13;1.75;;;14.20;94.90;;;;;;5041916;28;20517;-75
2023/03/13 07:55:56;;;;;;;3.58;2.10;;;14.30;94.60;;;;;;5038100;28;20453;-76
2023/03/13 07:58:23;;;;;;;3.63;1.60;;;14.40;94.90;;;;;;5040257;28;20437;-75
2023/03/13 08:00:50;;;;;;;3.50;2.10;;;14.40;95.00;;;;;;5039999;28;20589;-75
2023/03/13 08:03:17;;;;;;;3.70;2.03;;;14.30;94.80;;;;;;5049589;28;20437;-75
2023/03/13 08:05:44;;;;;;;2.70;1.90;;;14.40;93.80;;;;;;5036216;28;20453;-75
2023/03/13 08:08:12;;;;;;;3.00;1.90;;;14.40;93.50;;;;;;5035905;28;20493;-75
2023/03/13 08:10:39;;;;;;;2.85;1.98;;;14.40;93.20;;;;;;5038049;28;20435;-75
2023/03/13 08:13:05;;;;;;;4.60;2.20;;;14.40;93.20;;;;;;5039584;28;20431;-75
2023/03/13 08:15:32;;;;;;;3.70;2.13;;;14.40;92.80;;;;;;5042610;28;20437;-74
2023/03/13 08:17:59;;;;;;;3.92;2.50;;;14.40;93.30;;;;;;5053095;28;20501;-75
2023/03/13 08:20:26;;;;;;;2.90;2.08;;;14.40;93.20;;;;;;5038023;28;20451;-75
2023/03/13 08:22:54;;;;;;;3.83;2.10;;;14.40;93.30;;;;;;5041369;28;20470;-74
2023/03/13 08:25:22;;;;;;;2.95;2.00;;;14.30;93.10;;;;;;5041437;28;20436;-73
2023/03/13 08:27:49;;;;;;;3.70;2.30;;;14.30;93.30;;;;;;5050456;28;20949;-74
2023/03/13 08:30:16;;;;;;;3.63;2.10;;;14.30;93.50;;;;;;5049573;28;20447;-74
2023/03/13 08:32:43;;;;;;;3.10;2.50;;;14.20;93.10;;;;;;5038220;28;20440;-74
2023/03/13 08:35:10;;;;;;;4.57;2.47;;;14.20;93.30;;;;;;5036425;28;20440;-74
2023/03/13 08:37:36;;;;;;;3.43;2.50;;;14.30;94.40;;;;;;5038664;28;20609;-75
2023/03/13 08:40:09;;;;;;;3.60;2.50;;;14.10;95.70;;;;;;5028883;28;20429;-77
2023/03/13 08:42:39;;;;;;;3.05;2.38;;;14.00;95.80;;;;;;5045050;28;20446;-75
2023/03/13 08:45:07;;;;;;;4.20;2.70;;;13.90;97.10;;;;;;5039303;28;20452;-75
2023/03/13 08:47:34;;;;;;;5.20;2.63;;;13.70;98.40;;;;;;5039330;28;20501;-75
2023/03/13 08:50:00;;;;;;;4.18;3.00;;;13.50;99.20;;;;;;5041803;28;20443;-75
2023/03/13 08:52:27;;;;;;;5.38;4.00;;;13.50;98.90;;;;;;5036130;28;20888;-64
2023/03/13 08:54:54;;;;;;;8.20;6.20;;;13.50;98.90;;;;;;5031748;28;20521;-61
2023/03/13 08:57:21;;;;;;;4.45;3.85;;;13.60;98.40;;;;;;5038228;28;20442;-62
2023/03/13 08:59:50;;;;;;;4.03;2.72;;;13.70;98.10;;;;;;5030532;28;21015;-75
2023/03/13 09:02:18;;;;;;;3.80;2.40;;;13.80;97.20;;;;;;5037223;28;20433;-76
2023/03/13 09:04:47;;;;;;;4.70;2.80;;;13.90;97.30;;;;;;5046696;28;20473;-75
2023/03/13 09:07:14;;;;;;;3.17;2.35;;;13.90;96.90;;;;;;5047158;28;20429;-77
2023/03/13 09:09:40;;;;;;;4.22;2.53;;;14.00;96.40;;;;;;5040511;28;20534;-75
2023/03/13 09:12:08;;;;;;;3.70;2.40;;;14.10;96.60;;;;;;5043947;28;20463;-79
2023/03/13 09:14:35;;;;;;;4.38;2.50;;;14.20;96.30;;;;;;5047401;28;20452;-76
2023/03/13 09:17:04;;;;;;;4.53;2.50;;;14.20;96.30;;;;;;5038050;28;20431;-76
2023/03/13 09:19:30;;;;;;;3.83;2.53;;;14.30;95.80;;;;;;5059961;28;20429;-76
2023/03/13 09:21:57;;;;;;;3.58;2.47;;;14.20;96.10;;;;;;5052122;28;20923;-76
2023/03/13 09:24:24;;;;;;;4.32;2.50;;;14.20;96.60;;;;;;5059310;28;20887;-76
2023/03/13 09:26:51;;;;;;;4.28;2.20;;;14.20;96.50;;;;;;5063839;28;20452;-76
2023/03/13 09:29:18;;;;;;;3.70;2.30;;;14.30;96.10;;;;;;5046965;28;20428;-76
2023/03/13 09:31:44;;;;;;;2.20;2.00;;;14.40;96.00;;;;;;5046997;28;20406;-76
2023/03/13 09:34:12;;;;;;;2.00;1.80;;;14.40;96.20;;;;;;5041148;28;20444;-77
2023/03/13 09:36:39;;;;;;;2.90;2.17;;;14.40;95.90;;;;;;5051622;28;20428;-76
2023/03/13 09:39:06;;;;;;;4.03;2.25;;;14.40;95.80;;;;;;5040785;28;20445;-75
2023/03/13 09:41:38;;;;;;;3.53;2.38;;;14.40;95.90;;;;;;5058286;28;20502;-76
2023/03/13 09:44:10;;;;;;;2.53;1.92;;;14.50;96.10;;;;;;5047493;28;20427;-76
2023/03/13 09:46:42;;;;;;;3.15;2.20;;;14.50;96.00;;;;;;5047671;28;20434;-75
2023/03/13 09:49:23;;;;;;;4.85;2.58;;;14.50;96.20;;;;;;5041554;28;20436;-75
2023/03/13 09:51:54;;;;;;;3.50;2.00;;;14.50;96.40;;;;;;5045960;28;20456;-75
2023/03/13 09:54:25;;;;;;;3.00;2.20;;;14.50;96.20;;;;;;5041660;28;20697;-74
2023/03/13 09:56:56;;;;;;;3.47;1.98;;;14.60;96.10;;;;;;5041653;28;20420;-75
2023/03/13 09:59:29;;;;;;;2.40;2.20;;;14.50;96.10;;;;;;5063386;28;20507;-75
2023/03/13 10:01:58;;;;;;;3.30;1.80;;;14.60;96.10;;;;;;5037744;28;20434;-75
2023/03/13 10:04:35;;;;;;;1.80;1.40;;;14.70;95.90;;;;;;5047182;28;20429;-76
2023/03/13 10:07:03;;;;;;;3.47;2.08;;;14.80;94.80;;;;;;5046220;28;20429;-76
2023/03/13 10:09:31;;;;;;;2.10;1.60;;;14.90;94.70;;;;;;5032562;28;20442;-77
2023/03/13 10:12:06;;;;;;;2.50;1.60;;;15.00;94.60;;;;;;5045092;28;20444;-76
2023/03/13 10:14:41;;;;;;;2.70;1.70;;;15.20;94.30;;;;;;5046114;28;20425;-77
2023/03/13 10:17:19;;;;;;;3.40;1.63;;;15.40;93.50;;;;;;5052697;28;20447;-77
2023/03/13 10:19:54;;;;;;;3.08;1.20;;;15.50;94.00;;;;;;5047205;28;20448;-76
2023/03/13 10:22:25;;;;;;;2.00;1.20;;;15.50;93.20;;;;;;5034843;28;20441;-76
2023/03/13 10:24:57;;;;;;;2.38;1.40;;;15.50;92.90;;;;;;5040703;28;20470;-76
2023/03/13 10:27:23;;;;;;;2.30;1.60;;;15.60;93.90;;;;;;5037399;28;20441;-76
2023/03/13 10:29:50;;;;;;;2.38;1.50;;;15.70;95.50;;;;;;5038025;28;20439;-76
2023/03/13 10:32:19;;;;;;;1.88;1.02;;;15.80;94.00;;;;;;5038737;28;20545;-75
2023/03/13 10:34:55;;;;;;;1.25;1.00;;;15.90;92.30;;;;;;5038887;28;21655;-75
2023/03/13 10:37:24;;;;;;;1.20;0.80;;;16.20;91.60;;;;;;5038823;28;20440;-76
2023/03/13 10:39:52;;;;;;;2.17;1.52;;;16.70;88.20;;;;;;5038153;28;20903;-75
2023/03/13 10:42:23;;;;;;;1.88;0.88;;;16.90;87.20;;;;;;5040617;28;20421;-76
2023/03/13 10:44:56;;;;;;;1.00;0.70;;;17.10;84.50;;;;;;5049246;28;20516;-74
2023/03/13 10:47:23;;;;;;;1.77;0.90;;;17.00;83.70;;;;;;5046804;28;20945;-76
2023/03/13 10:49:55;;;;;;;2.20;0.90;;;16.90;84.70;;;;;;5054636;28;20437;-75
2023/03/13 10:52:34;;;;;;;1.77;1.00;;;16.80;83.80;;;;;;5044066;28;20864;-75
2023/03/13 10:55:04;;;;;;;1.30;0.83;;;16.80;84.50;;;;;;5038907;28;20471;-75
2023/03/13 10:57:32;;;;;;;1.05;0.70;;;16.80;84.60;;;;;;5044223;28;20451;-75
2023/03/13 10:59:59;;;;;;;0.73;0.60;;;17.00;86.60;;;;;;5047693;28;20512;-74
2023/03/13 11:02:32;;;;;;;1.40;0.80;;;17.10;81.10;;;;;;5049204;28;20544;-74
2023/03/13 11:05:01;;;;;;;1.27;0.60;;;17.20;80.90;;;;;;5047347;28;20969;-74
2023/03/13 11:07:30;;;;;;;0.80;0.70;;;17.40;79.30;;;;;;5049008;28;20436;-75
2023/03/13 11:10:03;;;;;;;1.13;0.70;;;17.40;79.60;;;;;;5029360;28;20511;-74
2023/03/13 11:12:34;;;;;;;1.58;0.90;;;17.30;80.50;;;;;;5030530;28;20566;-74
2023/03/13 11:15:03;;;;;;;2.90;0.90;;;17.30;81.10;;;;;;5031371;28;20464;-75
2023/03/13 11:17:36;;;;;;;1.23;0.70;;;17.40;81.40;;;;;;5046705;28;20433;-75
2023/03/13 11:20:14;;;;;;;0.98;0.63;;;17.40;80.70;;;;;;5046317;28;20421;-74
2023/03/13 11:22:53;;;;;;;1.48;0.65;;;17.70;80.00;;;;;;5040976;28;20760;-74
2023/03/13 11:25:23;;;;;;;1.60;0.60;;;18.10;77.60;;;;;;5034068;28;20875;-74
2023/03/13 11:28:16;;;;;;;1.30;0.60;;;18.30;75.20;;;;;;5036931;28;20807;-75
2023/03/13 11:30:59;;;;;;;1.00;0.50;;;18.20;74.90;;;;;;5036409;28;20535;-75
2023/03/13 11:33:38;;;;;;;1.30;0.55;;;18.20;73.80;;;;;;5038836;28;20428;-74
2023/03/13 11:36:15;;;;;;;0.98;0.50;;;18.40;73.80;;;;;;5034783;28;21382;-74
2023/03/13 11:38:44;;;;;;;1.40;0.60;;;18.30;74.40;;;;;;5034874;28;20413;-74
2023/03/13 11:41:45;;;;;;;1.52;0.65;;;18.20;74.70;;;;;;5040627;28;20519;-73
2023/03/13 11:44:26;;;;;;;2.17;0.80;;;18.50;73.90;;;;;;5034617;28;20463;-75
2023/03/13 11:47:05;;;;;;;1.65;0.60;;;18.20;73.70;;;;;;5038798;28;20444;-74
2023/03/13 11:50:00;;;;;;;1.38;0.50;;;17.90;76.00;;;;;;5050612;28;20895;-76
2023/03/13 11:52:42;;;;;;;1.40;0.50;;;18.10;75.10;;;;;;5058486;28;20433;-75
2023/03/13 11:55:49;;;;;;;0.80;0.50;;;19.20;70.10;;;;;;5040116;28;20489;-75
2023/03/13 11:58:30;;;;;;;0.90;0.40;;;19.70;66.20;;;;;;4990689;28;20432;-76
2023/03/13 12:01:00;;;;;;;1.90;0.40;;;19.10;66.80;;;;;;5040039;28;20467;-76
2023/03/13 12:03:35;;;;;;;0.80;0.40;;;18.50;70.40;;;;;;5046345;28;20897;-77
2023/03/13 12:06:04;;;;;;;0.88;0.50;;;18.00;73.00;;;;;;5039520;28;20492;-76
2023/03/13 12:08:37;;;;;;;0.80;0.60;;;17.80;74.10;;;;;;5035992;28;20512;-76
2023/03/13 12:11:13;;;;;;;1.42;0.70;;;17.60;74.80;;;;;;5032066;28;20453;-76
2023/03/13 12:13:42;;;;;;;1.03;0.60;;;17.60;75.90;;;;;;5028677;28;20454;-77
2023/03/13 12:16:13;;;;;;;1.05;0.50;;;17.40;76.30;;;;;;5038836;28;21161;-76
2023/03/13 12:18:42;;;;;;;1.00;0.50;;;17.30;77.20;;;;;;5031700;28;20881;-74
2023/03/13 12:21:19;;;;;;;1.00;0.50;;;17.60;73.60;;;;;;5038244;28;20432;-75
2023/03/13 12:23:54;;;;;;;1.20;0.50;;;17.70;71.60;;;;;;5019981;28;20522;-77
2023/03/13 12:26:26;;;;;;;0.80;0.50;;;17.80;71.20;;;;;;5025541;28;20429;-76
2023/03/13 12:29:06;;;;;;;0.85;0.50;;;18.20;68.00;;;;;;5030216;28;20466;-76
2023/03/13 12:31:38;;;;;;;1.05;0.50;;;18.20;67.70;;;;;;5025764;28;20429;-76
2023/03/13 12:34:13;;;;;;;1.30;0.40;;;18.60;65.70;;;;;;5030019;28;20439;-76
2023/03/13 12:36:44;;;;;;;2.40;0.60;;;18.60;66.30;;;;;;5038855;28;20429;-74
2023/03/13 12:39:26;;;;;;;1.30;0.50;;;18.40;67.10;;;;;;5026997;28;20902;-74
2023/03/13 12:42:06;;;;;;;1.38;0.50;;;18.30;67.70;;;;;;5036073;28;20457;-74
2023/03/13 12:44:34;;;;;;;0.75;0.50;;;18.30;68.30;;;;;;5051690;28;20441;-75
2023/03/13 12:47:08;;;;;;;1.40;0.80;;;18.00;67.90;;;;;;5091301;22;20426;-74
2023/03/13 12:50:11;;;;;;;1.98;0.65;;;17.70;70.20;;;;;;5106514;28;20421;-73
2023/03/13 12:52:56;;;;;;;1.80;0.77;;;17.80;70.70;;;;;;5069287;28;20433;-73
2023/03/13 12:55:44;;;;;;;2.60;0.70;;;18.10;71.60;;;;;;5089122;28;20829;-73